createdAt,value
2023-03-28T00:08:56.118Z,76240.31
2023-03-28T00:19:06.041Z,76226.16
2023-03-28T00:29:21.482Z,76222.09
2023-03-28T00:39:28.018Z,76216.03
2023-03-28T00:49:37.932Z,76226.16
2023-03-28T00:59:43.339Z,76236.25
2023-03-28T01:09:46.832Z,76234.25
2023-03-28T01:20:08.754Z,76222.09
2023-03-28T01:31:05.672Z,76211.97
2023-03-28T01:41:42.121Z,76201.84
2023-03-28T01:52:21.881Z,76197.81
2023-03-28T02:02:30.423Z,76193.75
2023-03-28T02:12:49.600Z,76201.84
2023-03-28T02:23:24.658Z,76187.69
2023-03-28T02:33:59.774Z,76195.78
2023-03-28T02:44:11.334Z,76191.72
2023-03-28T02:54:30.652Z,76185.66
2023-03-28T03:05:02.193Z,76191.72
2023-03-28T03:15:05.598Z,76171.50
2023-03-28T03:25:36.894Z,76159.34
2023-03-28T03:35:56.618Z,76139.09
2023-03-28T03:46:00.819Z,76108.75
2023-03-28T03:56:10.934Z,76088.50
2023-03-28T04:06:31.398Z,76078.38
2023-03-28T04:16:45.186Z,76062.19
2023-03-28T04:26:50.418Z,76084.47
2023-03-28T04:37:02.002Z,76088.50
2023-03-28T04:47:15.510Z,76017.66
2023-03-28T04:57:18.187Z,75997.44
2023-03-28T05:07:26.641Z,75991.34
2023-03-28T05:17:32.349Z,75950.88
2023-03-28T05:27:53.290Z,75817.31
2023-03-28T05:37:56.149Z,75772.78
2023-03-28T05:48:06.505Z,75770.75
2023-03-28T05:58:11.974Z,75778.84
2023-03-28T06:08:15.834Z,75843.63
2023-03-28T06:18:20.554Z,75890.16
2023-03-28T06:28:26.601Z,75900.28
2023-03-28T06:38:53.762Z,75932.66
2023-03-28T06:48:58.956Z,75936.72
2023-03-28T06:59:04.327Z,75956.94
2023-03-28T07:09:12.726Z,75973.16
2023-03-28T07:19:23.821Z,75973.16
2023-03-28T07:29:30.046Z,75963.03
2023-03-28T07:39:40.025Z,75969.09
2023-03-28T07:49:50.512Z,75948.84
2023-03-28T07:59:53.142Z,75914.44
2023-03-28T08:09:59.075Z,75890.16
2023-03-28T08:20:11.402Z,75791.00
2023-03-28T08:30:19.217Z,75732.31
2023-03-28T08:40:30.370Z,75641.22
2023-03-28T08:50:51.019Z,75594.69
2023-03-28T09:00:58.567Z,75616.94
2023-03-28T09:11:29.909Z,75574.44
2023-03-28T09:22:04.965Z,75645.28
2023-03-28T09:32:22.791Z,75896.22
2023-03-28T09:42:45.292Z,75971.13
2023-03-28T09:53:38.210Z,76005.53
2023-03-28T10:03:52.751Z,76021.72
2023-03-28T10:13:57.593Z,76082.44
2023-03-28T10:24:10.309Z,76066.25
2023-03-28T10:34:28.987Z,76070.28
2023-03-28T10:44:41.237Z,76082.44
2023-03-28T10:54:51.752Z,76161.38
2023-03-28T11:05:26.292Z,76153.28
2023-03-28T11:15:46.486Z,76122.91
2023-03-28T11:26:28.196Z,76092.56
2023-03-28T11:37:29.181Z,76110.78
2023-03-28T11:47:37.433Z,76143.16
2023-03-28T11:57:57.350Z,76131.00
2023-03-28T12:08:08.442Z,76090.53
2023-03-28T12:18:34.653Z,76062.19
2023-03-28T12:28:46.260Z,76185.66
2023-03-28T12:39:21.654Z,76159.34
2023-03-28T12:49:42.535Z,76110.78
2023-03-28T13:00:07.769Z,76062.19
2023-03-28T13:11:13.397Z,76033.88
2023-03-28T13:21:53.345Z,76102.69
2023-03-28T13:32:03.887Z,76118.88
2023-03-28T13:42:32.392Z,76090.53
2023-03-28T13:52:38.325Z,76151.25
2023-03-28T14:02:49.450Z,76246.38
2023-03-28T14:12:53.092Z,76246.38
2023-03-28T14:23:01.007Z,76244.34
2023-03-28T14:33:22.637Z,76220.06
2023-03-28T14:43:32.026Z,76211.97
2023-03-28T14:53:42.385Z,76218.03
2023-03-28T15:03:46.799Z,76262.56
2023-03-28T15:14:05.185Z,76252.47
2023-03-28T15:24:14.290Z,76319.25
2023-03-28T15:34:27.558Z,76305.09
2023-03-28T15:44:38.274Z,76335.44
2023-03-28T15:54:47.111Z,76347.59
2023-03-28T16:05:07.326Z,76388.06
2023-03-28T16:15:17.276Z,76418.44
2023-03-28T16:25:33.262Z,76477.13
2023-03-28T16:35:35.876Z,76543.94
2023-03-28T16:45:38.825Z,76592.50
2023-03-28T16:55:46.534Z,76608.72
2023-03-28T17:05:48.973Z,76608.72
2023-03-28T17:15:53.577Z,76633.00
2023-03-28T17:25:58.220Z,76659.31
2023-03-28T17:36:15.067Z,76673.47
2023-03-28T17:46:21.877Z,76722.06
2023-03-28T17:56:28.917Z,76738.25
2023-03-28T18:06:35.445Z,76756.47
2023-03-28T18:16:39.108Z,76792.91
2023-03-28T18:26:41.811Z,76788.88
2023-03-28T18:36:51.581Z,76794.94
2023-03-28T18:46:55.696Z,76819.25
2023-03-28T18:57:03.533Z,76809.13
2023-03-28T19:07:10.923Z,76792.91
2023-03-28T19:17:17.987Z,76790.91
2023-03-28T19:27:23.897Z,76782.78
2023-03-28T19:37:38.094Z,76790.91
2023-03-28T19:47:46.223Z,76786.84
2023-03-28T19:57:54.735Z,76782.78
2023-03-28T20:07:57.433Z,76774.69
2023-03-28T20:18:10.485Z,76750.41
2023-03-28T20:28:18.515Z,76752.44
2023-03-28T20:38:24.652Z,76764.56
2023-03-28T20:48:36.775Z,76764.56
2023-03-28T20:58:40.546Z,76762.56
2023-03-28T21:08:46.060Z,76768.63
2023-03-28T21:18:48.831Z,76768.63
2023-03-28T21:28:57.017Z,76758.50
2023-03-28T21:39:05.393Z,76780.78
2023-03-28T21:49:09.769Z,76803.03
2023-03-28T21:59:24.214Z,76817.22
2023-03-28T22:09:28.330Z,76825.31
2023-03-28T22:19:31.727Z,76827.34
2023-03-28T22:29:34.673Z,76843.53
2023-03-28T22:39:43.082Z,76847.56
2023-03-28T22:49:47.312Z,76863.78
2023-03-28T22:59:55.823Z,76867.81
2023-03-28T23:10:04.119Z,76873.91
2023-03-28T23:20:13.133Z,76892.13
2023-03-28T23:30:17.593Z,76904.25
2023-03-28T23:40:23.617Z,76900.22
2023-03-28T23:50:29.809Z,76912.34
